sensor_id;sensor_type;location;lat;lon;timestamp;P1;durP1;ratioP1;P2;durP2;ratioP2
8946;SDS011;4508;48.790;9.028;2023-02-07T00:00:54;10.27;;;9.48;;
8946;SDS011;4508;48.790;9.028;2023-02-07T00:03:22;10.10;;;9.30;;
8946;SDS011;4508;48.790;9.028;2023-02-07T00:05:49;10.05;;;9.15;;
8946;SDS011;4508;48.790;9.028;2023-02-07T00:08:16;10.48;;;9.57;;
8946;SDS011;4508;48.790;9.028;2023-02-07T00:10:43;10.00;;;9.20;;
8946;SDS011;4508;48.790;9.028;2023-02-07T00:13:10;10.60;;;9.70;;
8946;SDS011;4508;48.790;9.028;2023-02-07T00:15:37;9.52;;;8.73;;
8946;SDS011;4508;48.790;9.028;2023-02-07T00:18:04;9.73;;;8.90;;
8946;SDS011;4508;48.790;9.028;2023-02-07T00:20:33;8.90;;;8.10;;
8946;SDS011;4508;48.790;9.028;2023-02-07T00:23:00;9.07;;;8.27;;
8946;SDS011;4508;48.790;9.028;2023-02-07T00:25:27;8.95;;;8.15;;
8946;SDS011;4508;48.790;9.028;2023-02-07T00:27:54;9.65;;;8.75;;
8946;SDS011;4508;48.790;9.028;2023-02-07T00:30:21;9.40;;;8.60;;
8946;SDS011;4508;48.790;9.028;2023-02-07T00:32:48;10.23;;;9.35;;
8946;SDS011;4508;48.790;9.028;2023-02-07T00:35:15;9.67;;;8.77;;
8946;SDS011;4508;48.790;9.028;2023-02-07T00:37:44;9.82;;;9.02;;
8946;SDS011;4508;48.790;9.028;2023-02-07T00:40:11;10.48;;;9.57;;
8946;SDS011;4508;48.790;9.028;2023-02-07T00:42:38;10.90;;;9.98;;
8946;SDS011;4508;48.790;9.028;2023-02-07T00:45:05;9.90;;;9.00;;
8946;SDS011;4508;48.790;9.028;2023-02-07T00:47:32;10.10;;;9.20;;
8946;SDS011;4508;48.790;9.028;2023-02-07T00:49:59;10.00;;;9.13;;
8946;SDS011;4508;48.790;9.028;2023-02-07T00:52:26;10.95;;;9.95;;
8946;SDS011;4508;48.790;9.028;2023-02-07T00:54:55;10.70;;;9.70;;
8946;SDS011;4508;48.790;9.028;2023-02-07T00:57:22;9.70;;;8.80;;
8946;SDS011;4508;48.790;9.028;2023-02-07T00:59:49;10.82;;;9.82;;
8946;SDS011;4508;48.790;9.028;2023-02-07T01:02:16;10.75;;;9.75;;
8946;SDS011;4508;48.790;9.028;2023-02-07T01:04:43;9.75;;;8.80;;
8946;SDS011;4508;48.790;9.028;2023-02-07T01:07:10;10.43;;;9.43;;
8946;SDS011;4508;48.790;9.028;2023-02-07T01:09:38;11.10;;;10.00;;
8946;SDS011;4508;48.790;9.028;2023-02-07T01:12:06;10.75;;;9.75;;
8946;SDS011;4508;48.790;9.028;2023-02-07T01:14:33;10.77;;;9.80;;
8946;SDS011;4508;48.790;9.028;2023-02-07T01:17:00;10.48;;;9.57;;
8946;SDS011;4508;48.790;9.028;2023-02-07T01:19:27;10.98;;;9.98;;
8946;SDS011;4508;48.790;9.028;2023-02-07T01:21:56;10.70;;;9.70;;
8946;SDS011;4508;48.790;9.028;2023-02-07T01:24:23;10.52;;;9.52;;
8946;SDS011;4508;48.790;9.028;2023-02-07T01:26:50;10.95;;;9.95;;
8946;SDS011;4508;48.790;9.028;2023-02-07T01:29:19;10.88;;;9.88;;
8946;SDS011;4508;48.790;9.028;2023-02-07T01:31:46;11.63;;;10.63;;
8946;SDS011;4508;48.790;9.028;2023-02-07T01:34:13;11.57;;;10.52;;
8946;SDS011;4508;48.790;9.028;2023-02-07T01:36:40;11.90;;;10.80;;
8946;SDS011;4508;48.790;9.028;2023-02-07T01:39:07;12.70;;;11.53;;
8946;SDS011;4508;48.790;9.028;2023-02-07T01:41:34;12.50;;;11.27;;
8946;SDS011;4508;48.790;9.028;2023-02-07T01:44:02;13.27;;;12.00;;
8946;SDS011;4508;48.790;9.028;2023-02-07T01:46:32;14.07;;;12.80;;
8946;SDS011;4508;48.790;9.028;2023-02-07T01:49:00;12.90;;;11.70;;
8946;SDS011;4508;48.790;9.028;2023-02-07T01:51:28;12.90;;;11.60;;
8946;SDS011;4508;48.790;9.028;2023-02-07T01:53:58;14.38;;;13.07;;
8946;SDS011;4508;48.790;9.028;2023-02-07T01:56:26;13.93;;;12.70;;
8946;SDS011;4508;48.790;9.028;2023-02-07T01:58:53;13.70;;;12.48;;
8946;SDS011;4508;48.790;9.028;2023-02-07T02:01:21;13.68;;;12.43;;
8946;SDS011;4508;48.790;9.028;2023-02-07T02:03:51;14.57;;;13.18;;
8946;SDS011;4508;48.790;9.028;2023-02-07T02:06:19;13.30;;;12.10;;
8946;SDS011;4508;48.790;9.028;2023-02-07T02:08:47;14.23;;;13.00;;
8946;SDS011;4508;48.790;9.028;2023-02-07T02:11:20;15.05;;;13.57;;
8946;SDS011;4508;48.790;9.028;2023-02-07T02:13:54;13.90;;;12.50;;
8946;SDS011;4508;48.790;9.028;2023-02-07T02:16:24;14.85;;;13.55;;
8946;SDS011;4508;48.790;9.028;2023-02-07T02:19:00;14.55;;;13.25;;
8946;SDS011;4508;48.790;9.028;2023-02-07T02:21:57;13.93;;;12.63;;
8946;SDS011;4508;48.790;9.028;2023-02-07T02:24:45;14.48;;;13.18;;
8946;SDS011;4508;48.790;9.028;2023-02-07T02:27:21;14.65;;;13.32;;
8946;SDS011;4508;48.790;9.028;2023-02-07T02:35:36;14.27;;;13.00;;
8946;SDS011;4508;48.790;9.028;2023-02-07T02:38:10;15.35;;;13.95;;
8946;SDS011;4508;48.790;9.028;2023-02-07T02:40:39;15.68;;;14.27;;
8946;SDS011;4508;48.790;9.028;2023-02-07T02:43:09;15.95;;;14.45;;
8946;SDS011;4508;48.790;9.028;2023-02-07T02:45:41;15.18;;;13.77;;
8946;SDS011;4508;48.790;9.028;2023-02-07T02:48:08;14.68;;;13.38;;
8946;SDS011;4508;48.790;9.028;2023-02-07T02:50:38;15.27;;;13.87;;
8946;SDS011;4508;48.790;9.028;2023-02-07T02:53:05;15.07;;;13.77;;
8946;SDS011;4508;48.790;9.028;2023-02-07T02:55:37;14.90;;;13.60;;
8946;SDS011;4508;48.790;9.028;2023-02-07T02:58:09;15.85;;;14.48;;
8946;SDS011;4508;48.790;9.028;2023-02-07T03:00:43;15.77;;;14.27;;
8946;SDS011;4508;48.790;9.028;2023-02-07T03:03:15;14.65;;;13.20;;
8946;SDS011;4508;48.790;9.028;2023-02-07T03:05:51;15.45;;;14.05;;
8946;SDS011;4508;48.790;9.028;2023-02-07T03:08:24;16.27;;;14.88;;
8946;SDS011;4508;48.790;9.028;2023-02-07T03:10:54;15.48;;;14.07;;
8946;SDS011;4508;48.790;9.028;2023-02-07T03:13:25;15.70;;;14.30;;
8946;SDS011;4508;48.790;9.028;2023-02-07T03:15:57;15.95;;;14.50;;
8946;SDS011;4508;48.790;9.028;2023-02-07T03:18:27;15.82;;;14.43;;
8946;SDS011;4508;48.790;9.028;2023-02-07T03:20:57;15.80;;;14.40;;
8946;SDS011;4508;48.790;9.028;2023-02-07T03:23:27;16.60;;;15.10;;
8946;SDS011;4508;48.790;9.028;2023-02-07T03:25:55;15.60;;;14.20;;
8946;SDS011;4508;48.790;9.028;2023-02-07T03:28:23;16.08;;;14.57;;
8946;SDS011;4508;48.790;9.028;2023-02-07T03:30:51;16.25;;;14.85;;
8946;SDS011;4508;48.790;9.028;2023-02-07T03:33:21;16.10;;;14.70;;
8946;SDS011;4508;48.790;9.028;2023-02-07T03:35:52;16.17;;;14.77;;
8946;SDS011;4508;48.790;9.028;2023-02-07T03:38:21;16.80;;;15.30;;
8946;SDS011;4508;48.790;9.028;2023-02-07T03:40:51;16.98;;;15.43;;
8946;SDS011;4508;48.790;9.028;2023-02-07T03:43:20;17.30;;;15.60;;
8946;SDS011;4508;48.790;9.028;2023-02-07T03:45:48;17.08;;;15.57;;
8946;SDS011;4508;48.790;9.028;2023-02-07T03:48:15;16.67;;;15.18;;
8946;SDS011;4508;48.790;9.028;2023-02-07T03:50:42;16.88;;;15.38;;
8946;SDS011;4508;48.790;9.028;2023-02-07T03:53:11;16.77;;;15.27;;
8946;SDS011;4508;48.790;9.028;2023-02-07T03:55:40;17.77;;;16.10;;
8946;SDS011;4508;48.790;9.028;2023-02-07T03:58:07;16.70;;;15.20;;
8946;SDS011;4508;48.790;9.028;2023-02-07T04:00:34;17.50;;;16.10;;
8946;SDS011;4508;48.790;9.028;2023-02-07T04:03:01;17.50;;;16.00;;
8946;SDS011;4508;48.790;9.028;2023-02-07T04:05:29;17.23;;;15.73;;
8946;SDS011;4508;48.790;9.028;2023-02-07T04:07:56;17.05;;;15.48;;
8946;SDS011;4508;48.790;9.028;2023-02-07T04:10:23;17.30;;;15.88;;
8946;SDS011;4508;48.790;9.028;2023-02-07T04:12:51;16.52;;;15.13;;
8946;SDS011;4508;48.790;9.028;2023-02-07T04:15:18;15.52;;;14.02;;
8946;SDS011;4508;48.790;9.028;2023-02-07T04:17:45;16.60;;;15.10;;
8946;SDS011;4508;48.790;9.028;2023-02-07T04:20:12;15.90;;;14.50;;
8946;SDS011;4508;48.790;9.028;2023-02-07T04:22:39;16.50;;;15.00;;
8946;SDS011;4508;48.790;9.028;2023-02-07T04:25:07;17.08;;;15.57;;
8946;SDS011;4508;48.790;9.028;2023-02-07T04:27:34;16.20;;;14.80;;
8946;SDS011;4508;48.790;9.028;2023-02-07T04:30:03;16.30;;;14.90;;
8946;SDS011;4508;48.790;9.028;2023-02-07T04:32:30;15.93;;;14.63;;
8946;SDS011;4508;48.790;9.028;2023-02-07T04:34:57;16.90;;;15.50;;
8946;SDS011;4508;48.790;9.028;2023-02-07T04:37:24;18.15;;;16.63;;
8946;SDS011;4508;48.790;9.028;2023-02-07T04:39:51;18.95;;;17.30;;
8946;SDS011;4508;48.790;9.028;2023-02-07T04:42:18;18.63;;;16.92;;
8946;SDS011;4508;48.790;9.028;2023-02-07T04:44:45;19.38;;;17.67;;
8946;SDS011;4508;48.790;9.028;2023-02-07T04:47:13;20.23;;;18.42;;
8946;SDS011;4508;48.790;9.028;2023-02-07T04:49:40;20.63;;;18.73;;
8946;SDS011;4508;48.790;9.028;2023-02-07T04:52:07;20.95;;;19.15;;
8946;SDS011;4508;48.790;9.028;2023-02-07T04:54:34;20.63;;;18.80;;
8946;SDS011;4508;48.790;9.028;2023-02-07T04:57:01;20.05;;;18.13;;
8946;SDS011;4508;48.790;9.028;2023-02-07T04:59:28;20.92;;;19.02;;
8946;SDS011;4508;48.790;9.028;2023-02-07T05:01:56;21.17;;;19.30;;
8946;SDS011;4508;48.790;9.028;2023-02-07T05:04:24;20.13;;;18.33;;
8946;SDS011;4508;48.790;9.028;2023-02-07T05:06:51;20.63;;;18.73;;
8946;SDS011;4508;48.790;9.028;2023-02-07T05:09:18;20.87;;;19.03;;
8946;SDS011;4508;48.790;9.028;2023-02-07T05:11:46;18.85;;;17.15;;
8946;SDS011;4508;48.790;9.028;2023-02-07T05:14:13;18.75;;;17.05;;
8946;SDS011;4508;48.790;9.028;2023-02-07T05:16:40;20.50;;;18.60;;
8946;SDS011;4508;48.790;9.028;2023-02-07T05:19:07;18.52;;;16.90;;
8946;SDS011;4508;48.790;9.028;2023-02-07T05:21:35;20.02;;;18.17;;
8946;SDS011;4508;48.790;9.028;2023-02-07T05:24:02;21.00;;;19.17;;
8946;SDS011;4508;48.790;9.028;2023-02-07T05:26:29;20.50;;;18.63;;
8946;SDS011;4508;48.790;9.028;2023-02-07T05:28:56;20.55;;;18.75;;
8946;SDS011;4508;48.790;9.028;2023-02-07T05:31:23;22.02;;;20.02;;
8946;SDS011;4508;48.790;9.028;2023-02-07T05:34:11;20.27;;;18.48;;
8946;SDS011;4508;48.790;9.028;2023-02-07T05:36:38;21.10;;;19.10;;
8946;SDS011;4508;48.790;9.028;2023-02-07T05:39:05;21.05;;;19.05;;
8946;SDS011;4508;48.790;9.028;2023-02-07T05:41:32;20.15;;;18.38;;
8946;SDS011;4508;48.790;9.028;2023-02-07T05:43:59;20.30;;;18.58;;
8946;SDS011;4508;48.790;9.028;2023-02-07T05:46:27;20.10;;;18.27;;
8946;SDS011;4508;48.790;9.028;2023-02-07T05:48:54;19.42;;;17.52;;
8946;SDS011;4508;48.790;9.028;2023-02-07T05:51:21;19.10;;;17.40;;
8946;SDS011;4508;48.790;9.028;2023-02-07T05:53:49;20.95;;;19.05;;
8946;SDS011;4508;48.790;9.028;2023-02-07T05:56:16;20.75;;;18.83;;
8946;SDS011;4508;48.790;9.028;2023-02-07T05:58:43;21.95;;;19.83;;
8946;SDS011;4508;48.790;9.028;2023-02-07T06:01:10;20.83;;;18.97;;
8946;SDS011;4508;48.790;9.028;2023-02-07T06:03:37;19.25;;;17.45;;
8946;SDS011;4508;48.790;9.028;2023-02-07T06:06:05;19.98;;;18.17;;
8946;SDS011;4508;48.790;9.028;2023-02-07T06:08:32;20.63;;;18.67;;
8946;SDS011;4508;48.790;9.028;2023-02-07T06:11:00;19.35;;;17.55;;
8946;SDS011;4508;48.790;9.028;2023-02-07T06:13:27;21.10;;;19.02;;
8946;SDS011;4508;48.790;9.028;2023-02-07T06:15:54;22.20;;;20.20;;
8946;SDS011;4508;48.790;9.028;2023-02-07T06:18:22;21.92;;;19.77;;
8946;SDS011;4508;48.790;9.028;2023-02-07T06:20:49;21.85;;;19.73;;
8946;SDS011;4508;48.790;9.028;2023-02-07T06:23:16;21.83;;;19.83;;
8946;SDS011;4508;48.790;9.028;2023-02-07T06:25:44;18.55;;;16.85;;
8946;SDS011;4508;48.790;9.028;2023-02-07T06:28:13;18.65;;;16.92;;
8946;SDS011;4508;48.790;9.028;2023-02-07T06:30:40;19.73;;;17.83;;
8946;SDS011;4508;48.790;9.028;2023-02-07T06:33:07;20.13;;;18.08;;
8946;SDS011;4508;48.790;9.028;2023-02-07T06:35:34;20.70;;;18.60;;
8946;SDS011;4508;48.790;9.028;2023-02-07T06:38:01;21.25;;;19.08;;
8946;SDS011;4508;48.790;9.028;2023-02-07T06:40:28;22.35;;;18.85;;
8946;SDS011;4508;48.790;9.028;2023-02-07T06:42:55;20.50;;;18.40;;
8946;SDS011;4508;48.790;9.028;2023-02-07T06:45:24;20.95;;;18.88;;
8946;SDS011;4508;48.790;9.028;2023-02-07T06:47:51;20.02;;;17.92;;
8946;SDS011;4508;48.790;9.028;2023-02-07T06:50:18;20.02;;;17.92;;
8946;SDS011;4508;48.790;9.028;2023-02-07T06:52:45;19.87;;;17.97;;
8946;SDS011;4508;48.790;9.028;2023-02-07T06:55:12;19.17;;;17.17;;
8946;SDS011;4508;48.790;9.028;2023-02-07T06:57:39;18.23;;;16.48;;
8946;SDS011;4508;48.790;9.028;2023-02-07T07:00:06;18.10;;;16.40;;
8946;SDS011;4508;48.790;9.028;2023-02-07T07:02:35;17.38;;;15.88;;
8946;SDS011;4508;48.790;9.028;2023-02-07T07:05:03;17.40;;;15.80;;
8946;SDS011;4508;48.790;9.028;2023-02-07T07:07:30;19.58;;;17.70;;
8946;SDS011;4508;48.790;9.028;2023-02-07T07:09:57;18.77;;;16.98;;
8946;SDS011;4508;48.790;9.028;2023-02-07T07:12:24;20.00;;;18.13;;
8946;SDS011;4508;48.790;9.028;2023-02-07T07:14:51;19.77;;;17.98;;
8946;SDS011;4508;48.790;9.028;2023-02-07T07:17:18;19.80;;;17.85;;
8946;SDS011;4508;48.790;9.028;2023-02-07T07:19:47;20.13;;;18.23;;
8946;SDS011;4508;48.790;9.028;2023-02-07T07:22:14;21.30;;;19.30;;
8946;SDS011;4508;48.790;9.028;2023-02-07T07:24:41;20.33;;;18.42;;
8946;SDS011;4508;48.790;9.028;2023-02-07T07:27:08;20.75;;;18.83;;
8946;SDS011;4508;48.790;9.028;2023-02-07T07:29:35;20.70;;;18.90;;
8946;SDS011;4508;48.790;9.028;2023-02-07T07:32:02;20.15;;;18.15;;
8946;SDS011;4508;48.790;9.028;2023-02-07T07:34:29;20.70;;;18.60;;
8946;SDS011;4508;48.790;9.028;2023-02-07T07:36:59;21.17;;;19.08;;
8946;SDS011;4508;48.790;9.028;2023-02-07T07:39:26;20.50;;;18.60;;
8946;SDS011;4508;48.790;9.028;2023-02-07T07:41:53;20.40;;;18.50;;
8946;SDS011;4508;48.790;9.028;2023-02-07T07:44:20;19.52;;;17.73;;
8946;SDS011;4508;48.790;9.028;2023-02-07T07:46:47;19.95;;;17.95;;
8946;SDS011;4508;48.790;9.028;2023-02-07T07:49:14;19.02;;;17.13;;
8946;SDS011;4508;48.790;9.028;2023-02-07T07:51:41;19.10;;;17.23;;
8946;SDS011;4508;48.790;9.028;2023-02-07T07:54:10;17.48;;;15.88;;
8946;SDS011;4508;48.790;9.028;2023-02-07T07:56:37;16.47;;;14.87;;
8946;SDS011;4508;48.790;9.028;2023-02-07T07:59:04;17.25;;;15.25;;
8946;SDS011;4508;48.790;9.028;2023-02-07T08:01:31;14.45;;;13.15;;
8946;SDS011;4508;48.790;9.028;2023-02-07T08:03:58;15.23;;;13.82;;
8946;SDS011;4508;48.790;9.028;2023-02-07T08:06:25;14.70;;;13.40;;
8946;SDS011;4508;48.790;9.028;2023-02-07T08:08:52;14.77;;;13.27;;
8946;SDS011;4508;48.790;9.028;2023-02-07T08:11:22;14.27;;;12.88;;
8946;SDS011;4508;48.790;9.028;2023-02-07T08:13:49;13.60;;;12.30;;
8946;SDS011;4508;48.790;9.028;2023-02-07T08:16:16;13.70;;;12.50;;
8946;SDS011;4508;48.790;9.028;2023-02-07T08:18:43;13.23;;;11.93;;
8946;SDS011;4508;48.790;9.028;2023-02-07T08:21:10;13.50;;;12.20;;
8946;SDS011;4508;48.790;9.028;2023-02-07T08:23:37;14.20;;;12.65;;
8946;SDS011;4508;48.790;9.028;2023-02-07T08:26:04;13.35;;;12.07;;
8946;SDS011;4508;48.790;9.028;2023-02-07T08:28:33;13.02;;;11.82;;
8946;SDS011;4508;48.790;9.028;2023-02-07T08:31:01;11.38;;;10.38;;
8946;SDS011;4508;48.790;9.028;2023-02-07T08:33:28;12.18;;;11.07;;
8946;SDS011;4508;48.790;9.028;2023-02-07T08:35:55;12.32;;;11.13;;
8946;SDS011;4508;48.790;9.028;2023-02-07T08:38:23;12.43;;;11.30;;
8946;SDS011;4508;48.790;9.028;2023-02-07T08:40:50;12.80;;;11.45;;
8946;SDS011;4508;48.790;9.028;2023-02-07T08:43:17;12.30;;;11.20;;
8946;SDS011;4508;48.790;9.028;2023-02-07T08:45:46;11.37;;;10.27;;
8946;SDS011;4508;48.790;9.028;2023-02-07T08:48:13;11.63;;;10.52;;
8946;SDS011;4508;48.790;9.028;2023-02-07T08:50:41;12.33;;;11.10;;
8946;SDS011;4508;48.790;9.028;2023-02-07T08:53:08;11.95;;;10.80;;
8946;SDS011;4508;48.790;9.028;2023-02-07T08:55:35;11.02;;;10.02;;
8946;SDS011;4508;48.790;9.028;2023-02-07T08:58:02;11.82;;;10.73;;
8946;SDS011;4508;48.790;9.028;2023-02-07T09:00:29;11.07;;;10.07;;
8946;SDS011;4508;48.790;9.028;2023-02-07T09:03:00;10.90;;;9.90;;
8946;SDS011;4508;48.790;9.028;2023-02-07T09:05:28;10.18;;;9.27;;
8946;SDS011;4508;48.790;9.028;2023-02-07T09:07:57;10.98;;;9.98;;
8946;SDS011;4508;48.790;9.028;2023-02-07T09:10:24;11.15;;;10.15;;
8946;SDS011;4508;48.790;9.028;2023-02-07T09:12:51;11.65;;;10.55;;
8946;SDS011;4508;48.790;9.028;2023-02-07T09:15:18;11.77;;;10.57;;
8946;SDS011;4508;48.790;9.028;2023-02-07T09:17:45;11.55;;;10.50;;
8946;SDS011;4508;48.790;9.028;2023-02-07T09:20:13;10.80;;;9.70;;
8946;SDS011;4508;48.790;9.028;2023-02-07T09:22:40;10.47;;;9.57;;
8946;SDS011;4508;48.790;9.028;2023-02-07T09:25:25;10.17;;;9.27;;
8946;SDS011;4508;48.790;9.028;2023-02-07T09:27:52;10.55;;;9.52;;
8946;SDS011;4508;48.790;9.028;2023-02-07T09:30:20;10.55;;;9.57;;
8946;SDS011;4508;48.790;9.028;2023-02-07T09:32:47;10.30;;;9.40;;
8946;SDS011;4508;48.790;9.028;2023-02-07T09:35:16;10.75;;;9.70;;
8946;SDS011;4508;48.790;9.028;2023-02-07T09:37:43;10.45;;;9.40;;
8946;SDS011;4508;48.790;9.028;2023-02-07T09:40:11;10.90;;;9.88;;
8946;SDS011;4508;48.790;9.028;2023-02-07T09:42:42;10.80;;;9.80;;
8946;SDS011;4508;48.790;9.028;2023-02-07T09:45:11;10.48;;;9.55;;
8946;SDS011;4508;48.790;9.028;2023-02-07T09:47:42;10.75;;;9.82;;
8946;SDS011;4508;48.790;9.028;2023-02-07T09:50:12;10.32;;;9.32;;
8946;SDS011;4508;48.790;9.028;2023-02-07T09:52:41;10.27;;;9.33;;
8946;SDS011;4508;48.790;9.028;2023-02-07T09:55:13;10.60;;;9.60;;
8946;SDS011;4508;48.790;9.028;2023-02-07T09:57:43;10.15;;;9.23;;
8946;SDS011;4508;48.790;9.028;2023-02-07T10:00:18;10.48;;;9.57;;
8946;SDS011;4508;48.790;9.028;2023-02-07T10:02:48;10.63;;;9.57;;
8946;SDS011;4508;48.790;9.028;2023-02-07T10:05:18;10.43;;;9.50;;
8946;SDS011;4508;48.790;9.028;2023-02-07T10:07:47;10.55;;;9.50;;
8946;SDS011;4508;48.790;9.028;2023-02-07T10:10:15;10.30;;;9.40;;
8946;SDS011;4508;48.790;9.028;2023-02-07T10:12:46;10.70;;;9.70;;
8946;SDS011;4508;48.790;9.028;2023-02-07T10:15:22;10.25;;;9.27;;
8946;SDS011;4508;48.790;9.028;2023-02-07T10:17:56;10.80;;;9.80;;
8946;SDS011;4508;48.790;9.028;2023-02-07T10:20:29;10.50;;;9.40;;
8946;SDS011;4508;48.790;9.028;2023-02-07T10:23:03;10.70;;;9.70;;
8946;SDS011;4508;48.790;9.028;2023-02-07T10:25:35;10.18;;;9.27;;
8946;SDS011;4508;48.790;9.028;2023-02-07T10:28:18;10.30;;;9.30;;
8946;SDS011;4508;48.790;9.028;2023-02-07T10:30:50;10.88;;;9.88;;
8946;SDS011;4508;48.790;9.028;2023-02-07T10:33:18;10.60;;;9.60;;
8946;SDS011;4508;48.790;9.028;2023-02-07T10:35:46;11.13;;;10.07;;
8946;SDS011;4508;48.790;9.028;2023-02-07T10:38:20;10.90;;;9.80;;
8946;SDS011;4508;48.790;9.028;2023-02-07T10:40:50;10.70;;;9.70;;
8946;SDS011;4508;48.790;9.028;2023-02-07T10:43:22;10.80;;;9.80;;
8946;SDS011;4508;48.790;9.028;2023-02-07T10:45:52;10.95;;;9.85;;
8946;SDS011;4508;48.790;9.028;2023-02-07T10:48:22;10.43;;;9.32;;
8946;SDS011;4508;48.790;9.028;2023-02-07T10:50:49;11.02;;;9.98;;
8946;SDS011;4508;48.790;9.028;2023-02-07T10:56:00;10.38;;;9.48;;
8946;SDS011;4508;48.790;9.028;2023-02-07T10:58:32;11.25;;;10.15;;
8946;SDS011;4508;48.790;9.028;2023-02-07T11:01:04;11.02;;;9.93;;
8946;SDS011;4508;48.790;9.028;2023-02-07T11:03:31;11.03;;;9.93;;
8946;SDS011;4508;48.790;9.028;2023-02-07T11:05:58;11.27;;;10.27;;
8946;SDS011;4508;48.790;9.028;2023-02-07T11:08:27;10.90;;;9.90;;
8946;SDS011;4508;48.790;9.028;2023-02-07T11:10:55;10.80;;;9.80;;
8946;SDS011;4508;48.790;9.028;2023-02-07T11:13:25;10.85;;;9.80;;
8946;SDS011;4508;48.790;9.028;2023-02-07T11:15:53;11.17;;;10.13;;
8946;SDS011;4508;48.790;9.028;2023-02-07T11:18:31;10.55;;;9.55;;
8946;SDS011;4508;48.790;9.028;2023-02-07T11:21:02;11.52;;;10.40;;
8946;SDS011;4508;48.790;9.028;2023-02-07T11:23:29;11.00;;;10.00;;
8946;SDS011;4508;48.790;9.028;2023-02-07T11:25:56;11.68;;;10.50;;
8946;SDS011;4508;48.790;9.028;2023-02-07T11:28:25;11.30;;;10.30;;
8946;SDS011;4508;48.790;9.028;2023-02-07T11:30:55;10.85;;;9.90;;
8946;SDS011;4508;48.790;9.028;2023-02-07T11:33:24;11.88;;;10.70;;
8946;SDS011;4508;48.790;9.028;2023-02-07T11:36:02;10.97;;;9.97;;
8946;SDS011;4508;48.790;9.028;2023-02-07T11:38:29;11.20;;;10.10;;
8946;SDS011;4508;48.790;9.028;2023-02-07T11:40:57;11.63;;;10.63;;
8946;SDS011;4508;48.790;9.028;2023-02-07T11:43:29;11.30;;;10.20;;
8946;SDS011;4508;48.790;9.028;2023-02-07T11:45:58;11.50;;;10.40;;
8946;SDS011;4508;48.790;9.028;2023-02-07T11:48:27;11.30;;;10.27;;
8946;SDS011;4508;48.790;9.028;2023-02-07T11:50:55;11.18;;;10.07;;
8946;SDS011;4508;48.790;9.028;2023-02-07T11:53:23;11.77;;;10.68;;
8946;SDS011;4508;48.790;9.028;2023-02-07T11:55:52;11.27;;;10.17;;
8946;SDS011;4508;48.790;9.028;2023-02-07T11:58:22;11.13;;;10.02;;
8946;SDS011;4508;48.790;9.028;2023-02-07T12:00:53;11.23;;;10.13;;
8946;SDS011;4508;48.790;9.028;2023-02-07T12:03:21;11.40;;;10.40;;
8946;SDS011;4508;48.790;9.028;2023-02-07T12:05:50;11.00;;;10.00;;
8946;SDS011;4508;48.790;9.028;2023-02-07T12:08:18;11.10;;;10.00;;
8946;SDS011;4508;48.790;9.028;2023-02-07T12:10:48;10.20;;;9.30;;
8946;SDS011;4508;48.790;9.028;2023-02-07T12:13:17;11.02;;;10.05;;
8946;SDS011;4508;48.790;9.028;2023-02-07T12:15:46;10.65;;;9.65;;
8946;SDS011;4508;48.790;9.028;2023-02-07T12:18:18;10.40;;;9.50;;
8946;SDS011;4508;48.790;9.028;2023-02-07T12:20:50;10.95;;;9.93;;
8946;SDS011;4508;48.790;9.028;2023-02-07T12:23:20;10.70;;;9.70;;
8946;SDS011;4508;48.790;9.028;2023-02-07T12:25:49;9.93;;;9.00;;
8946;SDS011;4508;48.790;9.028;2023-02-07T12:28:20;9.90;;;8.93;;
8946;SDS011;4508;48.790;9.028;2023-02-07T12:30:50;10.02;;;9.02;;
8946;SDS011;4508;48.790;9.028;2023-02-07T12:33:22;10.43;;;9.43;;
8946;SDS011;4508;48.790;9.028;2023-02-07T12:35:57;10.20;;;9.25;;
8946;SDS011;4508;48.790;9.028;2023-02-07T12:38:27;10.27;;;9.30;;
8946;SDS011;4508;48.790;9.028;2023-02-07T12:40:57;10.93;;;9.82;;
8946;SDS011;4508;48.790;9.028;2023-02-07T12:43:26;10.70;;;9.70;;
8946;SDS011;4508;48.790;9.028;2023-02-07T12:45:57;10.37;;;9.37;;
8946;SDS011;4508;48.790;9.028;2023-02-07T12:48:33;10.30;;;9.27;;
8946;SDS011;4508;48.790;9.028;2023-02-07T12:51:07;10.30;;;9.30;;
8946;SDS011;4508;48.790;9.028;2023-02-07T12:53:41;10.70;;;9.80;;
8946;SDS011;4508;48.790;9.028;2023-02-07T12:56:18;10.70;;;9.60;;
8946;SDS011;4508;48.790;9.028;2023-02-07T12:58:48;10.93;;;9.68;;
8946;SDS011;4508;48.790;9.028;2023-02-07T13:01:19;10.82;;;9.82;;
8946;SDS011;4508;48.790;9.028;2023-02-07T13:03:54;10.45;;;9.55;;
8946;SDS011;4508;48.790;9.028;2023-02-07T13:06:25;10.80;;;9.80;;
8946;SDS011;4508;48.790;9.028;2023-02-07T13:08:57;10.35;;;9.35;;
8946;SDS011;4508;48.790;9.028;2023-02-07T13:11:28;10.32;;;9.43;;
8946;SDS011;4508;48.790;9.028;2023-02-07T13:14:06;10.73;;;9.68;;
8946;SDS011;4508;48.790;9.028;2023-02-07T13:16:39;11.23;;;9.98;;
8946;SDS011;4508;48.790;9.028;2023-02-07T13:19:12;10.43;;;9.48;;
8946;SDS011;4508;48.790;9.028;2023-02-07T13:21:45;10.73;;;9.75;;
8946;SDS011;4508;48.790;9.028;2023-02-07T13:24:14;10.52;;;9.52;;
8946;SDS011;4508;48.790;9.028;2023-02-07T13:26:43;9.60;;;8.70;;
8946;SDS011;4508;48.790;9.028;2023-02-07T13:29:14;10.57;;;9.57;;
8946;SDS011;4508;48.790;9.028;2023-02-07T13:31:43;10.65;;;9.55;;
8946;SDS011;4508;48.790;9.028;2023-02-07T13:34:13;10.48;;;9.57;;
8946;SDS011;4508;48.790;9.028;2023-02-07T13:36:41;11.30;;;10.30;;
8946;SDS011;4508;48.790;9.028;2023-02-07T13:39:14;10.52;;;9.63;;
8946;SDS011;4508;48.790;9.028;2023-02-07T13:41:47;10.03;;;9.10;;
8946;SDS011;4508;48.790;9.028;2023-02-07T13:44:18;10.23;;;9.32;;
8946;SDS011;4508;48.790;9.028;2023-02-07T13:46:53;10.07;;;9.18;;
8946;SDS011;4508;48.790;9.028;2023-02-07T13:49:32;10.45;;;9.45;;
8946;SDS011;4508;48.790;9.028;2023-02-07T13:52:02;9.73;;;8.82;;
8946;SDS011;4508;48.790;9.028;2023-02-07T13:54:32;10.15;;;9.15;;
8946;SDS011;4508;48.790;9.028;2023-02-07T13:57:02;10.00;;;9.00;;
8946;SDS011;4508;48.790;9.028;2023-02-07T14:00:04;10.20;;;9.30;;
8946;SDS011;4508;48.790;9.028;2023-02-07T14:02:33;10.20;;;9.30;;
8946;SDS011;4508;48.790;9.028;2023-02-07T14:05:07;10.00;;;9.10;;
8946;SDS011;4508;48.790;9.028;2023-02-07T14:07:34;10.65;;;9.68;;
8946;SDS011;4508;48.790;9.028;2023-02-07T14:10:03;9.77;;;8.88;;
8946;SDS011;4508;48.790;9.028;2023-02-07T14:12:33;9.93;;;9.02;;
8946;SDS011;4508;48.790;9.028;2023-02-07T14:17:54;10.10;;;9.20;;
8946;SDS011;4508;48.790;9.028;2023-02-07T14:20:45;9.88;;;8.90;;
8946;SDS011;4508;48.790;9.028;2023-02-07T14:23:14;9.80;;;8.80;;
8946;SDS011;4508;48.790;9.028;2023-02-07T14:25:42;9.27;;;8.43;;
8946;SDS011;4508;48.790;9.028;2023-02-07T14:28:22;9.50;;;8.68;;
8946;SDS011;4508;48.790;9.028;2023-02-07T14:30:56;9.77;;;8.77;;
8946;SDS011;4508;48.790;9.028;2023-02-07T14:33:28;9.60;;;8.80;;
8946;SDS011;4508;48.790;9.028;2023-02-07T14:36:13;9.70;;;8.90;;
8946;SDS011;4508;48.790;9.028;2023-02-07T14:38:58;9.60;;;8.77;;
8946;SDS011;4508;48.790;9.028;2023-02-07T14:41:26;9.25;;;8.40;;
8946;SDS011;4508;48.790;9.028;2023-02-07T14:43:55;9.55;;;8.65;;
8946;SDS011;4508;48.790;9.028;2023-02-07T14:46:24;9.38;;;8.48;;
8946;SDS011;4508;48.790;9.028;2023-02-07T14:48:52;8.90;;;8.10;;
8946;SDS011;4508;48.790;9.028;2023-02-07T14:51:21;9.13;;;8.23;;
8946;SDS011;4508;48.790;9.028;2023-02-07T14:53:57;9.55;;;8.65;;
8946;SDS011;4508;48.790;9.028;2023-02-07T14:56:28;9.10;;;8.20;;
8946;SDS011;4508;48.790;9.028;2023-02-07T14:58:57;9.00;;;8.10;;
8946;SDS011;4508;48.790;9.028;2023-02-07T15:01:25;9.15;;;8.25;;
8946;SDS011;4508;48.790;9.028;2023-02-07T15:04:02;9.00;;;8.10;;
8946;SDS011;4508;48.790;9.028;2023-02-07T15:06:35;8.75;;;7.95;;
8946;SDS011;4508;48.790;9.028;2023-02-07T15:09:04;8.87;;;8.07;;
8946;SDS011;4508;48.790;9.028;2023-02-07T15:11:31;9.65;;;8.30;;
8946;SDS011;4508;48.790;9.028;2023-02-07T15:13:59;9.37;;;8.43;;
8946;SDS011;4508;48.790;9.028;2023-02-07T15:16:28;9.17;;;8.13;;
8946;SDS011;4508;48.790;9.028;2023-02-07T15:18:56;8.82;;;7.93;;